Latest Weather Observations for Gannett Cay

IDQ60801

Issued at 6:35 am EST Monday 21 April 2014 (issued every 30 minutes, with the page automatically refreshed every 10 minutes)

About weather observations | Map of weather stations | Latest weather observations for QLD | Other Formats
Station Details ID: 200831 Name: GANNET CAY Lat: -21.98 Lon: 152.47 Height: 2.3 m
Data from the previous 72 hours. | See also: Recent months for locations in Queensland
Date/Time
EST
Temp
°C
App
Temp
°C
Dew
Point
Rel
Hum
%
Delta-T
°C
Wind Press
QNH
hPa
Press
MSL
hPa
Rain
since 9 am
mm
Dir
 
Spd
km/h
Gust
km/h
Spd
kts
Gust
kts
21/06:30am 25.0 - - - - ESE 26 30 14 16 1017.6 - -
21/06:26am 25.0 - - - - ESE 26 28 14 15 1017.5 1017.6 -
21/06:00am 25.0 - - - - ESE 24 28 13 15 1017.3 - -
21/05:30am 25.0 - - - - E 24 30 13 16 1017.1 - -
21/05:26am 25.1 - - - - E 22 - 12 - - 1017.1 -
21/05:00am 25.0 - - - - E 24 28 13 15 1016.9 - -
21/04:30am 25.0 - - - - E 24 28 13 15 1016.6 - -
21/04:26am 24.9 - - - - E 22 - 12 - - 1016.7 -
21/04:00am 25.0 - - - - E 22 28 12 15 1016.5 - -
21/03:30am 24.9 - - - - E 22 28 12 15 1016.4 - -
21/03:26am 24.9 - - - - E 22 - 12 - - 1016.5 -
21/03:00am 24.9 - - - - E 22 26 12 14 1016.5 - -
21/02:30am 24.9 - - - - E 24 30 13 16 1016.6 - -
21/02:26am 25.0 - - - - E 24 - 13 - - 1016.7 -
21/02:00am 25.0 - - - - E 24 30 13 16 1016.6 - -
21/01:30am 25.0 - - - - E 24 30 13 16 1016.8 - -
21/01:26am 25.0 - - - - E 24 - 13 - - 1016.9 -
21/01:00am 25.0 - - - - E 24 28 13 15 1017.0 - -
21/12:30am 25.0 - - - - E 24 28 13 15 1017.2 - -
21/12:26am 25.1 - - - - E 24 - 13 - - 1017.3 -
21/12:00am 25.0 - - - - E 26 32 14 17 1017.4 - -
 
Date/Time
EST
Temp
°C
App
Temp
°C
Dew
Point
Rel
Hum
%
Delta-T
°C
Wind Press
QNH
hPa
Press
MSL
hPa
Rain
since 9 am
mm
Dir
 
Spd
km/h
Gust
km/h
Spd
kts
Gust
kts
20/11:30pm 25.0 - - - - E 22 30 12 16 1017.5 - -
20/11:26pm 25.0 - - - - E 22 - 12 - - 1017.7 -
20/11:00pm 25.1 - - - - E 26 32 14 17 1017.7 - -
20/10:30pm 25.1 - - - - E 2 6 1 3 1017.7 - -
20/10:26pm 25.1 - - - - ESE 2 - 1 - - 1017.8 -
20/10:00pm 25.0 - - - - E 2 6 1 3 1017.7 - -
20/09:30pm 24.9 - - - - E 2 6 1 3 1018.0 - -
20/09:26pm 25.0 - - - - ESE 2 - 1 - - 1018.0 -
20/09:00pm 24.9 - - - - ESE 2 6 1 3 1017.9 - -
20/08:30pm 24.9 - - - - ESE 2 6 1 3 1017.9 - -
20/08:26pm 24.9 - - - - ESE 2 - 1 - - 1018.0 -
20/08:00pm 24.9 - - - - SE 2 6 1 3 1017.6 - -
20/07:30pm 25.0 - - - - ESE 2 6 1 3 1017.4 - -
20/07:26pm 25.0 - - - - ESE 2 - 1 - - 1017.4 -
20/07:00pm 24.9 - - - - ESE 2 6 1 3 1017.0 - -
20/06:30pm 25.0 - - - - ESE 24 28 13 15 1016.6 - -
20/06:26pm 25.0 - - - - ESE 24 - 13 - - 1016.6 -
20/06:00pm 25.0 - - - - ESE 20 26 11 14 1016.2 - -
20/05:30pm 25.1 - - - - ESE 20 22 11 12 1016.1 - -
20/05:26pm 25.2 - - - - ESE 20 - 11 - - 1016.1 -
20/05:00pm 25.5 - - - - ESE 20 26 11 14 1015.8 - -
20/04:30pm 25.6 - - - - ESE 19 22 10 12 1015.5 - -
20/04:26pm 25.7 - - - - ESE 19 - 10 - - 1015.5 -
20/04:00pm 25.9 - - - - ESE 19 22 10 12 1015.3 - -
20/03:30pm 26.0 - - - - ESE 17 22 9 12 1015.1 - -
20/03:26pm 25.9 - - - - ESE 17 - 9 - - 1015.2 -
20/03:00pm 25.8 - - - - ESE 17 20 9 11 1015.1 - -
20/02:30pm 26.0 - - - - ESE 19 22 10 12 1014.9 - -
20/02:26pm 26.1 - - - - ESE 17 - 9 - - 1015.0 -
20/02:00pm 25.6 - - - - E 17 20 9 11 1014.9 - -
20/01:30pm 25.9 - - - - ESE 15 20 8 11 1015.1 - -
20/01:26pm 26.1 - - - - ESE 15 - 8 - - 1015.2 -
20/01:00pm 25.6 - - - - E 17 20 9 11 1015.2 - -
20/12:30pm 26.0 - - - - ESE 19 24 10 13 1015.6 - -
20/12:26pm 25.9 - - - - ESE 19 - 10 - - 1015.8 -
20/12:00pm 26.0 - - - - E 17 22 9 12 1015.9 - -
20/11:30am 25.4 - - - - E 19 24 10 13 1016.3 - -
20/11:26am 26.0 - - - - E 17 - 9 - - 1016.5 -
20/11:00am 25.8 - - - - E 19 24 10 13 1016.7 - -
20/10:30am 26.0 - - - - ESE 19 24 10 13 1017.1 - -
20/10:26am 26.0 - - - - ESE 19 - 10 - - 1017.3 -
20/10:00am 25.9 - - - - E 19 24 10 13 1017.2 - -
20/09:30am 25.9 - - - - E 19 22 10 12 1017.1 - -
20/09:26am 25.8 - - - - E 19 - 10 - - 1017.2 -
20/09:00am 25.4 - - - - E 19 24 10 13 1016.9 - -
20/08:30am 25.7 - - - - E 20 24 11 13 1016.7 - -
20/08:26am 25.7 - - - - E 20 - 11 - - 1016.7 -
20/08:00am 25.5 - - - - E 20 22 11 12 1016.5 - -
20/07:30am 25.3 - - - - ENE 19 22 10 12 1016.3 - -
20/07:26am 25.2 - - - - E 19 - 10 - - 1016.3 -
20/07:00am 25.2 - - - - ENE 19 22 10 12 1016.1 - -
20/06:30am 25.0 - - - - E 17 22 9 12 1015.8 - -
20/06:26am 25.0 - - - - E 19 - 10 - - 1015.8 -
20/06:00am 24.7 - - - - ENE 17 20 9 11 1015.6 - -
20/05:30am 24.6 - - - - E 2 6 1 3 1015.3 - -
20/05:26am 24.6 - - - - E 2 - 1 - - 1015.4 -
20/05:00am 24.5 - - - - E 2 6 1 3 1015.1 - -
20/04:30am 24.6 - - - - E 2 4 1 2 1014.8 - -
20/04:26am 24.5 - - - - E 2 - 1 - - 1014.9 -
20/04:00am 24.3 - - - - CALM 0 4 0 2 1014.7 - -
20/03:30am 24.4 - - - - E 2 6 1 3 1014.6 - -
20/03:26am 24.4 - - - - E 2 - 1 - - 1014.7 -
20/03:00am 24.4 - - - - CALM 0 4 0 2 1014.5 - -
20/02:30am 24.4 - - - - CALM 0 4 0 2 1014.6 - -
20/02:26am 24.4 - - - - CALM 0 - 0 - - 1014.7 -
20/02:00am 24.4 - - - - CALM 0 4 0 2 1014.8 - -
20/01:30am 24.5 - - - - CALM 0 4 0 2 1014.9 - -
20/01:26am 24.5 - - - - CALM 0 - 0 - - 1015.0 -
20/01:00am 24.3 - - - - CALM 0 7 0 4 1015.1 - -
20/12:30am 24.4 - - - - CALM 0 4 0 2 1015.3 - -
20/12:26am 24.3 - - - - CALM 0 - 0 - - 1015.4 -
20/12:00am 24.4 - - - - CALM 0 4 0 2 1015.5 - -
 
Date/Time
EST
Temp
°C
App
Temp
°C
Dew
Point
Rel
Hum
%
Delta-T
°C
Wind Press
QNH
hPa
Press
MSL
hPa
Rain
since 9 am
mm
Dir
 
Spd
km/h
Gust
km/h
Spd
kts
Gust
kts
19/11:30pm 24.5 - - - - CALM 0 4 0 2 1015.6 - -
19/11:26pm 24.5 - - - - CALM 0 - 0 - - 1015.7 -
19/11:00pm 24.5 - - - - CALM 0 4 0 2 1015.7 - -
19/10:30pm 24.7 - - - - CALM 0 4 0 2 1015.8 - -
19/10:26pm 24.7 - - - - CALM 0 - 0 - - 1015.9 -
19/10:00pm 24.8 - - - - CALM 0 4 0 2 1016.1 - -
19/09:30pm 24.8 - - - - CALM 0 4 0 2 1016.0 - -
19/09:26pm 24.8 - - - - CALM 0 - 0 - - 1016.1 -
19/09:00pm 24.7 - - - - CALM 0 4 0 2 1016.2 - -
19/08:30pm 24.9 - - - - CALM 0 4 0 2 1016.2 - -
19/08:26pm 24.9 - - - - CALM 0 - 0 - - 1016.2 -
19/08:00pm 24.7 - - - - CALM 0 4 0 2 1016.0 - -
19/07:30pm 24.8 - - - - CALM 0 4 0 2 1015.7 - -
19/07:26pm 24.9 - - - - CALM 0 - 0 - - 1015.7 -
19/07:00pm 24.9 - - - - E 11 13 6 7 1015.3 - -
19/06:30pm 24.7 - - - - SE 9 13 5 7 1014.9 - -
19/06:26pm 24.7 - - - - SE 9 - 5 - - 1015.0 -
19/06:00pm 24.8 - - - - SE 11 13 6 7 1014.7 - -
19/05:30pm 25.2 - - - - SE 9 13 5 7 1014.4 - -
19/05:26pm 25.5 - - - - SE 9 - 5 - - 1014.5 -
19/05:00pm 26.2 - - - - SE 9 13 5 7 1014.3 - -
19/04:30pm 26.2 - - - - SSE 9 11 5 6 1014.1 - -
19/04:26pm 26.0 - - - - S 11 - 6 - - 1014.2 -
19/04:00pm 25.7 - - - - S 9 11 5 6 1014.0 - -
19/03:30pm 26.3 - - - - S 9 13 5 7 1014.0 - -
19/03:26pm 26.5 - - - - S 9 - 5 - - 1014.1 -
19/03:00pm 26.7 - - - - SE 9 13 5 7 1014.0 - -
19/02:30pm 26.3 - - - - SSE 9 11 5 6 1014.1 - -
19/02:26pm 26.6 - - - - SSE 9 - 5 - - 1014.2 -
19/02:00pm 25.7 - - - - S 11 15 6 8 1014.3 - -
19/01:30pm 26.3 - - - - SSE 11 15 6 8 1014.5 - -
19/01:26pm 26.0 - - - - SSE 11 - 6 - - 1014.6 -
19/01:00pm 26.3 - - - - SSE 11 15 6 8 1014.8 - -
19/12:30pm 25.4 - - - - S 13 19 7 10 1015.0 - -
19/12:26pm 25.3 - - - - S 11 - 6 - - 1015.2 -
19/12:00pm 25.7 - - - - SSE 11 15 6 8 1015.5 - -
19/11:30am 25.2 - - - - S 11 13 6 7 1015.8 - -
19/11:26am 25.3 - - - - S 9 - 5 - - 1016.0 -
19/11:00am 25.7 - - - - S 9 13 5 7 1016.3 - -
19/10:30am 25.1 - - - - S 7 11 4 6 1016.7 - -
19/10:26am 25.6 - - - - S 7 - 4 - - 1016.8 -
19/10:00am 25.0 - - - - S 11 13 6 7 1016.8 - -
19/09:30am 25.1 - - - - S 11 15 6 8 1017.0 - -
19/09:26am 25.2 - - - - S 11 - 6 - - 1017.1 -
19/09:00am 25.7 - - - - SSE 11 13 6 7 1017.0 - -
19/08:30am 25.2 - - - - SE 7 13 4 7 1017.0 - -
19/08:26am 25.7 - - - - SE 7 - 4 - - 1017.1 -
19/08:00am 25.7 - - - - S 9 11 5 6 1016.9 - -
19/07:30am 25.1 - - - - S 9 11 5 6 1016.9 - -
19/07:26am 24.8 - - - - S 9 - 5 - - 1016.9 -
19/07:00am 25.1 - - - - S 7 9 4 5 1016.6 - -
19/06:30am 24.5 - - - - CALM 0 0 0 0 1016.4 - -
19/06:26am 24.4 - - - - CALM 0 - 0 - - 1016.4 -
19/06:00am 24.3 - - - - CALM 0 4 0 2 1016.0 - -
19/05:30am 24.2 - - - - CALM 0 6 0 3 1015.8 - -
19/05:26am 24.1 - - - - CALM 0 - 0 - - 1015.9 -
19/05:00am 24.3 - - - - CALM 0 0 0 0 1015.5 - -
19/04:30am 24.3 - - - - CALM 0 0 0 0 1015.3 - -
19/04:26am 24.3 - - - - CALM 0 - 0 - - 1015.4 -
19/04:00am 24.4 - - - - CALM 0 2 0 1 1015.3 - -
19/03:30am 24.3 - - - - CALM 0 2 0 1 1015.3 - -
19/03:26am 24.2 - - - - CALM 0 - 0 - - 1015.4 -
19/03:00am 24.5 - - - - CALM 0 6 0 3 1015.3 - -
19/02:30am 24.6 - - - - CALM 0 4 0 2 1015.3 - -
19/02:26am 24.6 - - - - CALM 0 - 0 - - 1015.4 -
19/02:00am 24.6 - - - - CALM 0 4 0 2 1015.6 - -
19/01:30am 24.7 - - - - CALM 0 2 0 1 1015.8 - -
19/01:26am 24.6 - - - - CALM 0 - 0 - - 1015.9 -
19/01:00am 24.7 - - - - CALM 0 4 0 2 1015.9 - -
19/12:30am 24.6 - - - - CALM 0 4 0 2 1016.1 - -
19/12:26am 24.6 - - - - CALM 0 - 0 - - 1016.2 -
19/12:00am 24.6 - - - - CALM 0 4 0 2 1016.3 - -
 
Date/Time
EST
Temp
°C
App
Temp
°C
Dew
Point
Rel
Hum
%
Delta-T
°C
Wind Press
QNH
hPa
Press
MSL
hPa
Rain
since 9 am
mm
Dir
 
Spd
km/h
Gust
km/h
Spd
kts
Gust
kts
18/11:30pm 24.7 - - - - CALM 0 2 0 1 1016.4 - -
18/11:26pm 24.7 - - - - CALM 0 - 0 - - 1016.4 -
18/11:00pm 24.7 - - - - CALM 0 2 0 1 1016.5 - -
18/10:30pm 24.7 - - - - CALM 0 2 0 1 1016.5 - -
18/10:26pm 24.6 - - - - CALM 0 - 0 - - 1016.6 -
18/10:00pm 24.7 - - - - CALM 0 2 0 1 1016.5 - -
18/09:30pm 24.8 - - - - CALM 0 4 0 2 1016.7 - -
18/09:26pm 24.8 - - - - CALM 0 - 0 - - 1016.7 -
18/09:00pm 24.9 - - - - CALM 0 4 0 2 1016.6 - -
18/08:30pm 24.8 - - - - CALM 0 4 0 2 1016.4 - -
18/08:26pm 24.8 - - - - CALM 0 - 0 - - 1016.5 -
18/08:00pm 24.9 - - - - CALM 0 2 0 1 1016.2 - -
18/07:30pm 24.9 - - - - CALM 0 4 0 2 1015.9 - -
18/07:26pm 24.8 - - - - CALM 0 - 0 - - 1016.0 -
18/07:00pm 24.8 - - - - CALM 0 4 0 2 1015.5 - -
18/06:30pm 24.7 - - - - CALM 0 6 0 3 1015.1 - -
18/06:26pm 24.7 - - - - CALM 0 - 0 - - 1015.2 -
18/06:00pm 24.7 - - - - ESE 6 6 3 3 1014.9 - -
18/05:30pm 25.2 - - - - S 6 9 3 5 1014.7 - -
18/05:26pm 25.2 - - - - S 7 - 4 - - 1014.8 -
18/05:00pm 26.3 - - - - S 7 11 4 6 1014.4 - -
18/04:30pm 27.0 - - - - SSE 6 7 3 4 1014.1 - -
18/04:26pm 26.3 - - - - SSE 6 - 3 - - 1014.1 -
18/04:00pm 26.7 - - - - SSE 9 11 5 6 1013.8 - -
18/03:30pm 26.6 - - - - S 6 9 3 5 1013.7 - -
18/03:26pm 26.4 - - - - S 7 - 4 - - 1013.7 -
18/03:00pm 25.9 - - - - SSE 7 9 4 5 1013.7 - -
18/02:30pm 25.9 - - - - S 7 11 4 6 1013.8 - -
18/02:26pm 26.0 - - - - SSE 9 - 5 - - 1013.9 -
18/02:00pm 26.2 - - - - SE 7 9 4 5 1014.0 - -
18/01:30pm 26.6 - - - - S 6 7 3 4 1014.0 - -
18/01:26pm 27.3 - - - - SSE 6 - 3 - - 1014.1 -
18/01:00pm 26.9 - - - - ESE 2 7 1 4 1014.1 - -
18/12:30pm 26.8 - - - - ENE 7 9 4 5 1014.5 - -
18/12:26pm 26.0 - - - - ENE 6 - 3 - - 1014.6 -
18/12:00pm 27.1 - - - - ENE 6 7 3 4 1014.9 - -
18/11:30am 26.9 - - - - ENE 6 9 3 5 1015.5 - -
18/11:26am 26.9 - - - - E 7 - 4 - - 1015.7 -
18/11:00am 26.9 - - - - E 7 11 4 6 1016.0 - -
18/10:30am 26.7 - - - - E 9 11 5 6 1016.3 - -
18/10:26am 26.3 - - - - ESE 9 - 5 - - 1016.4 -
18/10:00am 26.3 - - - - E 9 11 5 6 1016.4 - -
18/09:30am 26.1 - - - - ESE 9 11 5 6 1016.5 - -
18/09:26am 26.1 - - - - ESE 9 - 5 - - 1016.6 -
18/09:00am 25.9 - - - - ESE 9 13 5 7 1016.5 - -
18/08:30am 26.2 - - - - E 9 13 5 7 1016.4 - -
18/08:26am 26.2 - - - - E 11 - 6 - - 1016.5 -
18/08:00am 25.6 - - - - ESE 11 13 6 7 1016.4 - -
18/07:30am 25.6 - - - - E 13 15 7 8 1016.2 - -
18/07:26am 25.8 - - - - E 11 - 6 - - 1016.3 -
18/07:00am 25.2 - - - - ESE 4 17 2 9 1016.0 - -

Other Formats:

Comma delimited format used in spreadsheet applications
http://www.bom.gov.au/fwo/IDQ60801/IDQ60801.94379.axf

JavaScript Object Notation format (JSON) in row-major order
http://www.bom.gov.au/fwo/IDQ60801/IDQ60801.94379.json